createdAt,value
2019-02-17T00:01:41.108Z,18.93
2019-02-17T00:04:54.708Z,18.83
2019-02-17T00:07:29.959Z,19.13
2019-02-17T00:10:54.106Z,18.70
2019-02-17T00:13:53.543Z,17.70
2019-02-17T00:16:44.880Z,18.87
2019-02-17T00:23:21.666Z,19.87
2019-02-17T00:26:21.714Z,18.80
2019-02-17T00:29:19.390Z,19.87
2019-02-17T00:32:29.042Z,19.20
2019-02-17T00:35:39.752Z,19.37
2019-02-17T00:38:52.148Z,19.13
2019-02-17T00:41:55.067Z,18.07
2019-02-17T00:45:21.561Z,19.07
2019-02-17T00:48:20.724Z,19.07
2019-02-17T00:51:04.728Z,19.40
2019-02-17T00:54:19.105Z,20.07
2019-02-17T00:57:20.271Z,19.73
2019-02-17T01:00:43.128Z,19.17
2019-02-17T01:07:42.447Z,18.53
2019-02-17T01:10:26.378Z,19.53
2019-02-17T01:14:40.876Z,19.50
2019-02-17T01:33:00.114Z,19.37
2019-02-17T01:40:45.506Z,17.93
2019-02-17T01:48:27.197Z,21.27
2019-02-17T01:52:20.863Z,22.13
2019-02-17T02:26:29.088Z,21.47
2019-02-17T02:44:10.209Z,19.57
2019-02-17T02:47:36.612Z,21.37
2019-02-17T02:50:50.041Z,21.00
2019-02-17T02:54:31.026Z,18.37
2019-02-17T03:12:48.936Z,20.40
2019-02-17T03:16:20.860Z,19.57
2019-02-17T03:23:22.419Z,18.43
2019-02-17T03:33:41.929Z,20.47
2019-02-17T03:40:34.754Z,20.70
2019-02-17T03:43:59.615Z,20.93
2019-02-17T03:47:09.554Z,20.77
2019-02-17T04:00:46.004Z,19.87
2019-02-17T04:04:06.153Z,20.67
2019-02-17T04:10:45.313Z,20.57
2019-02-17T04:14:17.261Z,17.80
2019-02-17T04:17:21.773Z,20.17
2019-02-17T04:21:10.168Z,20.20
2019-02-17T04:43:21.901Z,20.83
2019-02-17T04:46:40.081Z,20.77
2019-02-17T05:44:41.536Z,19.17
2019-02-17T05:48:13.734Z,19.83
2019-02-17T05:55:30.271Z,20.90
2019-02-17T06:21:34.687Z,19.40
2019-02-17T06:25:50.140Z,20.60
2019-02-17T06:51:32.090Z,19.70
2019-02-17T06:54:28.936Z,17.63
2019-02-17T06:57:36.291Z,18.80
2019-02-17T07:01:01.633Z,19.83
2019-02-17T07:04:17.655Z,20.10
2019-02-17T07:07:23.730Z,20.07
2019-02-17T07:13:27.771Z,20.23
2019-02-17T07:16:45.912Z,17.97
2019-02-17T07:20:35.460Z,19.07
2019-02-17T07:27:04.206Z,19.93
2019-02-17T07:51:31.742Z,20.70
2019-02-17T07:54:24.454Z,19.73
2019-02-17T07:57:22.118Z,21.13
2019-02-17T07:59:55.904Z,18.73
2019-02-17T08:02:53.324Z,20.50
2019-02-17T08:05:43.016Z,19.00
2019-02-17T08:08:23.949Z,20.27
2019-02-17T08:11:18.742Z,20.43
2019-02-17T08:13:58.359Z,20.30
2019-02-17T08:16:30.378Z,19.43
2019-02-17T08:19:03.607Z,20.70
2019-02-17T08:21:34.992Z,19.13
2019-02-17T08:24:08.879Z,20.37
2019-02-17T08:26:47.841Z,19.70
2019-02-17T08:29:57.448Z,20.30
2019-02-17T08:33:05.527Z,18.53
2019-02-17T08:35:43.897Z,18.43
2019-02-17T08:38:24.433Z,18.50
2019-02-17T08:41:29.760Z,19.53
2019-02-17T08:44:10.188Z,20.03
2019-02-17T08:46:52.680Z,18.63
2019-02-17T08:49:30.801Z,19.83
2019-02-17T08:52:09.016Z,20.20
2019-02-17T08:55:17.530Z,19.57
2019-02-17T08:57:50.208Z,18.70
2019-02-17T09:00:30.833Z,20.30
2019-02-17T09:03:23.130Z,19.13
2019-02-17T09:06:20.826Z,19.80
2019-02-17T09:08:59.389Z,19.17
2019-02-17T09:11:35.103Z,20.53
2019-02-17T09:14:04.931Z,19.50
2019-02-17T09:16:49.605Z,19.43
2019-02-17T09:19:19.941Z,18.83
2019-02-17T09:21:48.392Z,19.93
2019-02-17T09:24:19.521Z,18.90
2019-02-17T09:26:47.385Z,18.87
2019-02-17T09:29:15.255Z,17.77
2019-02-17T09:31:43.309Z,17.93
2019-02-17T09:34:13.127Z,18.73
2019-02-17T09:36:44.923Z,17.10
2019-02-17T09:39:12.771Z,16.70
2019-02-17T09:41:41.865Z,17.67
2019-02-17T09:44:09.525Z,17.80
2019-02-17T09:46:37.174Z,17.27
2019-02-17T09:49:04.866Z,16.57
2019-02-17T09:51:32.763Z,16.93
2019-02-17T09:54:07.122Z,16.57
2019-02-17T09:56:34.935Z,17.23
2019-02-17T09:59:02.748Z,16.07
2019-02-17T10:01:30.486Z,17.17
2019-02-17T10:03:58.249Z,16.17
2019-02-17T10:06:27.751Z,16.73
2019-02-17T10:08:55.631Z,17.17
2019-02-17T10:11:23.326Z,15.53
2019-02-17T10:13:50.988Z,16.60
2019-02-17T10:16:18.845Z,17.27
2019-02-17T10:18:49.688Z,17.30
2019-02-17T10:21:20.519Z,16.30
2019-02-17T10:23:49.656Z,15.87
2019-02-17T10:26:23.419Z,15.97
2019-02-17T10:28:53.691Z,16.30
2019-02-17T10:31:23.306Z,16.00
2019-02-17T10:33:51.030Z,15.70
2019-02-17T10:36:18.875Z,16.33
2019-02-17T10:38:46.742Z,15.60
2019-02-17T10:41:14.469Z,15.73
2019-02-17T10:43:47.276Z,15.13
2019-02-17T10:46:17.436Z,15.60
2019-02-17T10:48:45.309Z,15.80
2019-02-17T10:51:20.939Z,16.63
2019-02-17T10:54:23.060Z,16.30
2019-02-17T10:56:50.777Z,14.73
2019-02-17T10:59:18.349Z,15.50
2019-02-17T11:01:47.855Z,14.67
2019-02-17T11:04:15.465Z,14.63
2019-02-17T11:06:43.206Z,14.63
2019-02-17T11:09:19.823Z,14.07
2019-02-17T11:11:47.600Z,14.30
2019-02-17T11:14:15.290Z,14.60
2019-02-17T11:16:42.907Z,13.90
2019-02-17T11:19:13.390Z,14.00
2019-02-17T11:21:41.024Z,14.50
2019-02-17T11:24:08.673Z,13.87
2019-02-17T11:26:36.309Z,13.83
2019-02-17T11:29:04.204Z,13.13
2019-02-17T11:31:34.098Z,12.57
2019-02-17T11:34:01.692Z,13.27
2019-02-17T11:36:33.726Z,12.17
2019-02-17T11:39:01.278Z,12.40
2019-02-17T11:41:31.854Z,13.17
2019-02-17T11:43:59.459Z,15.10
2019-02-17T11:46:28.034Z,13.17
2019-02-17T11:49:01.762Z,11.70
2019-02-17T11:51:29.436Z,12.23
2019-02-17T11:53:57.184Z,11.10
2019-02-17T11:56:24.747Z,11.50
2019-02-17T11:58:52.331Z,11.30
2019-02-17T12:01:20.229Z,11.03
2019-02-17T12:03:56.092Z,11.57
2019-02-17T12:06:27.904Z,11.10
2019-02-17T12:09:09.734Z,10.80
2019-02-17T12:11:37.506Z,10.93
2019-02-17T12:14:05.272Z,10.67
2019-02-17T12:16:36.954Z,10.97
2019-02-17T12:19:02.254Z,10.50
2019-02-17T12:21:41.996Z,10.27
2019-02-17T12:24:10.632Z,10.50
2019-02-17T12:26:49.435Z,10.47
2019-02-17T12:29:28.759Z,10.40
2019-02-17T12:31:57.839Z,9.57
2019-02-17T12:34:25.724Z,9.47
2019-02-17T12:36:53.333Z,9.57
2019-02-17T12:39:21.394Z,9.43
2019-02-17T12:41:49.056Z,9.93
2019-02-17T12:44:16.870Z,10.23
2019-02-17T12:46:44.541Z,9.77
2019-02-17T12:49:12.170Z,9.97
2019-02-17T12:51:39.837Z,9.20
2019-02-17T12:54:07.648Z,9.07
2019-02-17T12:56:35.289Z,9.07
2019-02-17T12:59:04.724Z,7.87
2019-02-17T13:01:32.332Z,8.33
2019-02-17T13:04:00.115Z,8.43
2019-02-17T13:06:29.055Z,7.80
2019-02-17T13:08:56.741Z,8.03
2019-02-17T13:11:24.456Z,8.30
2019-02-17T13:13:52.477Z,8.00
2019-02-17T13:16:20.237Z,8.17
2019-02-17T13:18:48.095Z,7.67
2019-02-17T13:21:15.765Z,7.17
2019-02-17T13:23:43.835Z,6.80
2019-02-17T13:26:11.468Z,7.67
2019-02-17T13:28:39.058Z,7.67
2019-02-17T13:31:06.681Z,7.50
2019-02-17T13:33:39.117Z,7.43
2019-02-17T13:36:04.348Z,6.97
2019-02-17T13:38:31.957Z,7.93
2019-02-17T13:40:59.535Z,7.60
2019-02-17T13:43:27.221Z,8.10
2019-02-17T13:45:54.819Z,7.43
2019-02-17T13:48:22.773Z,8.03
2019-02-17T13:50:50.629Z,7.73
2019-02-17T13:53:18.273Z,7.37
2019-02-17T13:55:46.545Z,6.87
2019-02-17T13:58:14.159Z,6.77
2019-02-17T14:00:41.813Z,7.67
2019-02-17T14:03:09.645Z,6.60
2019-02-17T14:05:37.290Z,7.33
2019-02-17T14:08:06.837Z,6.23
2019-02-17T14:10:37.243Z,6.70
2019-02-17T14:13:04.842Z,6.67
2019-02-17T14:15:32.495Z,6.50
2019-02-17T14:18:00.118Z,6.80
2019-02-17T14:20:27.795Z,5.80
2019-02-17T14:22:55.413Z,5.93
2019-02-17T14:25:23.957Z,6.63
2019-02-17T14:27:51.551Z,6.40
2019-02-17T14:30:25.639Z,6.17
2019-02-17T14:33:12.736Z,6.13
2019-02-17T14:35:40.294Z,6.10
2019-02-17T14:38:07.901Z,5.70
2019-02-17T14:40:35.951Z,6.10
2019-02-17T14:43:03.529Z,5.53
2019-02-17T14:45:31.271Z,5.70
2019-02-17T14:47:58.880Z,5.10
2019-02-17T14:50:26.721Z,5.23
2019-02-17T14:52:54.396Z,4.90
2019-02-17T14:55:22.031Z,4.80
2019-02-17T14:57:52.929Z,5.13
2019-02-17T15:00:20.587Z,5.10
2019-02-17T15:02:48.244Z,4.97
2019-02-17T15:05:17.909Z,4.67
2019-02-17T15:07:45.513Z,4.60
2019-02-17T15:10:13.470Z,4.17
2019-02-17T15:12:41.150Z,4.30
2019-02-17T15:15:09.367Z,4.63
2019-02-17T15:17:53.838Z,4.50
2019-02-17T15:20:21.569Z,3.90
2019-02-17T15:22:49.256Z,4.23
2019-02-17T15:25:18.448Z,4.10
2019-02-17T15:27:50.649Z,4.53
2019-02-17T15:30:18.415Z,4.73
2019-02-17T15:32:51.236Z,5.13
2019-02-17T15:35:18.860Z,4.60
2019-02-17T15:37:46.498Z,4.70
2019-02-17T15:40:14.580Z,4.67
2019-02-17T15:42:43.267Z,4.60
2019-02-17T15:45:11.365Z,4.43
2019-02-17T15:47:41.618Z,4.67
2019-02-17T15:50:09.429Z,4.90
2019-02-17T15:52:42.624Z,4.83
2019-02-17T15:55:15.641Z,4.93
2019-02-17T15:57:43.284Z,5.80
2019-02-17T16:00:16.468Z,5.57
2019-02-17T16:02:44.034Z,5.50
2019-02-17T16:05:11.744Z,6.20
2019-02-17T16:07:42.521Z,6.20
2019-02-17T16:10:10.148Z,8.33
2019-02-17T16:12:37.982Z,7.43
2019-02-17T16:15:08.698Z,7.33
2019-02-17T16:17:36.400Z,6.37
2019-02-17T16:20:06.012Z,5.93
2019-02-17T16:22:33.606Z,7.57
2019-02-17T16:25:01.277Z,6.27
2019-02-17T16:27:34.344Z,7.07
2019-02-17T16:30:01.980Z,6.20
2019-02-17T16:33:04.962Z,6.20
2019-02-17T16:35:23.686Z,6.70
2019-02-17T16:37:54.343Z,7.07
2019-02-17T16:40:22.088Z,6.43
2019-02-17T16:42:49.796Z,6.57
2019-02-17T16:45:17.671Z,5.43
2019-02-17T16:47:45.398Z,5.47
2019-02-17T16:50:15.427Z,5.03
2019-02-17T16:52:43.273Z,5.70
2019-02-17T16:55:13.150Z,6.03
2019-02-17T16:57:43.164Z,5.90
2019-02-17T17:00:13.318Z,6.50
2019-02-17T17:02:40.913Z,6.70
2019-02-17T17:05:09.055Z,6.43
2019-02-17T17:10:48.022Z,5.87
2019-02-17T17:13:18.624Z,6.07
2019-02-17T17:15:46.526Z,5.80
2019-02-17T17:18:14.286Z,6.40
2019-02-17T17:20:41.936Z,6.53
2019-02-17T17:23:09.554Z,7.27
2019-02-17T17:25:37.214Z,7.90
2019-02-17T17:28:04.776Z,8.00
2019-02-17T17:30:32.444Z,7.57
2019-02-17T17:33:00.068Z,7.83
2019-02-17T17:35:27.656Z,7.57
2019-02-17T17:37:55.265Z,7.53
2019-02-17T17:40:22.834Z,6.47
2019-02-17T17:42:53.546Z,9.80
2019-02-17T17:45:21.243Z,9.37
2019-02-17T17:47:48.904Z,10.93
2019-02-17T17:50:16.798Z,9.50
2019-02-17T17:52:44.560Z,9.33
2019-02-17T17:55:13.788Z,9.23
2019-02-17T17:57:43.066Z,8.10
2019-02-17T18:00:13.253Z,8.10
2019-02-17T18:02:40.967Z,8.33
2019-02-17T18:05:09.645Z,9.20
2019-02-17T18:07:48.062Z,8.90
2019-02-17T18:10:22.310Z,9.33
2019-02-17T18:12:49.968Z,13.90
2019-02-17T18:15:17.697Z,22.57
2019-02-17T18:17:53.764Z,19.77
2019-02-17T18:20:17.685Z,16.07
2019-02-17T18:22:45.349Z,13.17
2019-02-17T18:25:13.504Z,10.90
2019-02-17T18:27:41.268Z,10.03
2019-02-17T18:30:12.627Z,9.50
2019-02-17T18:32:40.575Z,9.40
2019-02-17T18:35:08.411Z,9.77
2019-02-17T18:37:39.729Z,8.57
2019-02-17T18:40:10.039Z,8.97
2019-02-17T18:42:37.736Z,9.30
2019-02-17T18:45:06.904Z,9.10
2019-02-17T18:47:35.971Z,9.33
2019-02-17T18:50:04.883Z,9.33
2019-02-17T18:52:32.656Z,8.90
2019-02-17T18:55:00.327Z,9.07
2019-02-17T18:57:28.002Z,8.47
2019-02-17T18:59:55.651Z,6.23
2019-02-17T19:02:23.370Z,6.20
2019-02-17T19:04:51.053Z,6.03
2019-02-17T19:07:22.344Z,6.70
2019-02-17T19:10:23.372Z,5.90
2019-02-17T19:12:56.913Z,5.87
2019-02-17T19:15:24.548Z,5.87
2019-02-17T19:17:53.601Z,6.43
2019-02-17T19:20:21.300Z,7.30
2019-02-17T19:22:48.890Z,9.07
2019-02-17T19:25:16.565Z,7.67
2019-02-17T19:27:49.439Z,7.80
2019-02-17T19:30:17.127Z,8.10
2019-02-17T19:32:44.909Z,8.00
2019-02-17T19:35:13.843Z,12.90
2019-02-17T19:37:41.533Z,11.87
2019-02-17T19:40:09.944Z,16.20
2019-02-17T19:42:37.676Z,15.53
2019-02-17T19:45:11.111Z,9.40
2019-02-17T19:47:42.620Z,8.70
2019-02-17T19:50:11.049Z,8.20
2019-02-17T19:52:51.269Z,8.70
2019-02-17T19:55:21.737Z,7.93
2019-02-17T19:57:49.385Z,8.23
2019-02-17T20:00:18.895Z,7.83
2019-02-17T20:03:11.024Z,7.60
2019-02-17T20:05:51.407Z,9.83
2019-02-17T20:08:11.052Z,11.57
2019-02-17T20:10:38.776Z,10.73
2019-02-17T20:13:08.418Z,9.93
2019-02-17T20:15:37.549Z,9.00
2019-02-17T20:18:05.343Z,9.13
2019-02-17T20:20:34.243Z,8.97
2019-02-17T20:23:02.841Z,8.40
2019-02-17T20:25:30.449Z,7.83
2019-02-17T20:28:00.382Z,7.80
2019-02-17T20:30:28.181Z,7.47
2019-02-17T20:32:56.080Z,7.47
2019-02-17T20:35:32.722Z,7.43
2019-02-17T20:38:00.375Z,8.30
2019-02-17T20:40:28.028Z,7.70
2019-02-17T20:42:55.644Z,6.97
2019-02-17T20:45:23.694Z,7.40
2019-02-17T20:47:51.304Z,7.97
2019-02-17T20:50:20.019Z,7.43
2019-02-17T20:52:51.059Z,8.43
2019-02-17T20:55:19.997Z,8.60
2019-02-17T20:57:47.674Z,7.90
2019-02-17T21:00:17.552Z,7.20
2019-02-17T21:02:48.087Z,7.50
2019-02-17T21:05:15.770Z,8.20
2019-02-17T21:07:43.428Z,8.07
2019-02-17T21:10:11.208Z,8.97
2019-02-17T21:12:40.964Z,8.43
2019-02-17T21:15:11.354Z,9.07
2019-02-17T21:17:40.208Z,8.57
2019-02-17T21:20:08.156Z,8.80
2019-02-17T21:22:36.368Z,7.70
2019-02-17T21:25:04.532Z,9.27
2019-02-17T21:27:32.071Z,8.33
2019-02-17T21:29:59.773Z,8.37
2019-02-17T21:32:29.224Z,8.67
2019-02-17T21:34:57.984Z,8.50
2019-02-17T21:37:25.649Z,9.07
2019-02-17T21:39:53.370Z,9.33
2019-02-17T21:42:22.736Z,8.17
2019-02-17T21:44:50.475Z,9.40
2019-02-17T21:47:20.868Z,9.47
2019-02-17T21:49:48.637Z,9.07
2019-02-17T21:52:17.910Z,9.50
2019-02-17T21:54:45.512Z,9.50
2019-02-17T21:57:14.991Z,9.60
2019-02-17T21:59:42.543Z,9.27
2019-02-17T22:02:10.134Z,9.73
2019-02-17T22:04:37.789Z,10.03
2019-02-17T22:07:08.501Z,9.27
2019-02-17T22:09:36.628Z,10.77
2019-02-17T22:12:04.208Z,11.20
2019-02-17T22:14:31.799Z,11.67
2019-02-17T22:16:59.348Z,11.00
2019-02-17T22:19:26.962Z,12.00
2019-02-17T22:21:54.534Z,11.33
2019-02-17T22:24:22.125Z,11.47
2019-02-17T22:26:49.713Z,10.97
2019-02-17T22:29:17.274Z,10.80
2019-02-17T22:31:44.874Z,10.87
2019-02-17T22:34:12.474Z,10.13
2019-02-17T22:36:43.758Z,10.40
2019-02-17T22:39:10.022Z,10.23
2019-02-17T22:41:37.883Z,10.07
2019-02-17T22:44:05.455Z,8.63
2019-02-17T22:46:33.023Z,9.33
2019-02-17T22:49:00.592Z,9.47
2019-02-17T22:51:28.603Z,8.43
2019-02-17T22:53:56.223Z,8.20
2019-02-17T22:56:23.902Z,8.27
2019-02-17T22:58:51.515Z,8.50
2019-02-17T23:01:24.155Z,8.40
2019-02-17T23:03:52.113Z,8.93
2019-02-17T23:06:19.663Z,8.77
2019-02-17T23:08:47.259Z,9.70
2019-02-17T23:11:15.896Z,9.93
2019-02-17T23:13:43.503Z,8.97
2019-02-17T23:16:11.169Z,8.57
2019-02-17T23:18:38.788Z,9.50
2019-02-17T23:21:06.402Z,9.67
2019-02-17T23:23:35.644Z,9.70
2019-02-17T23:26:03.411Z,8.90
2019-02-17T23:28:33.292Z,8.90
2019-02-17T23:31:01.008Z,8.87
2019-02-17T23:33:28.637Z,9.40
2019-02-17T23:35:56.225Z,8.97
2019-02-17T23:38:23.864Z,9.40
2019-02-17T23:40:51.465Z,9.23
2019-02-17T23:43:19.081Z,9.57
2019-02-17T23:45:46.716Z,8.90
2019-02-17T23:48:14.291Z,9.70
2019-02-17T23:50:41.862Z,9.13
2019-02-17T23:53:09.474Z,9.33
2019-02-17T23:55:37.116Z,8.60
2019-02-17T23:58:04.667Z,9.47
